createdAt,value
2019-04-07T00:00:47.595Z,59.83
2019-04-07T00:03:19.538Z,48.93
2019-04-07T00:05:52.394Z,61.10
2019-04-07T00:08:22.788Z,48.87
2019-04-07T00:10:53.081Z,59.17
2019-04-07T00:13:23.269Z,49.67
2019-04-07T00:15:54.442Z,67.47
2019-04-07T00:18:25.180Z,63.07
2019-04-07T00:20:56.468Z,52.53
2019-04-07T00:23:27.239Z,62.37
2019-04-07T00:25:57.773Z,56.53
2019-04-07T00:28:28.637Z,50.13
2019-04-07T00:31:01.931Z,60.90
2019-04-07T00:33:33.617Z,52.43
2019-04-07T00:36:04.763Z,64.03
2019-04-07T00:38:37.164Z,50.87
2019-04-07T00:41:06.904Z,58.50
2019-04-07T00:43:36.611Z,62.70
2019-04-07T00:46:07.773Z,48.63
2019-04-07T00:48:38.584Z,62.50
2019-04-07T00:51:10.197Z,61.47
2019-04-07T00:53:40.891Z,53.07
2019-04-07T00:56:13.675Z,58.77
2019-04-07T00:58:44.490Z,59.43
2019-04-07T01:01:16.443Z,62.83
2019-04-07T01:03:46.247Z,49.93
2019-04-07T01:06:18.807Z,60.87
2019-04-07T01:08:49.845Z,60.17
2019-04-07T01:11:20.901Z,52.03
2019-04-07T01:13:53.937Z,63.60
2019-04-07T01:16:25.214Z,64.53
2019-04-07T01:18:55.046Z,58.97
2019-04-07T01:21:24.921Z,48.90
2019-04-07T01:23:57.887Z,58.23
2019-04-07T01:26:29.238Z,60.90
2019-04-07T01:28:59.369Z,67.67
2019-04-07T01:31:30.264Z,51.37
2019-04-07T01:34:00.444Z,62.10
2019-04-07T01:36:31.825Z,65.17
2019-04-07T01:39:02.981Z,64.00
2019-04-07T01:41:44.137Z,65.53
2019-04-07T01:44:18.994Z,64.83
2019-04-07T01:46:53.973Z,63.77
2019-04-07T01:49:28.775Z,64.37
2019-04-07T01:52:16.497Z,54.73
2019-04-07T01:54:57.580Z,70.50
2019-04-07T01:57:32.469Z,53.13
2019-04-07T02:00:11.129Z,71.93
2019-04-07T02:02:45.817Z,69.20
2019-04-07T02:05:36.443Z,66.13
2019-04-07T02:08:24.786Z,73.03
2019-04-07T02:11:08.054Z,66.00
2019-04-07T02:13:57.312Z,71.70
2019-04-07T02:16:32.205Z,70.60
2019-04-07T02:19:11.297Z,69.10
2019-04-07T02:21:59.507Z,55.53
2019-04-07T02:24:35.683Z,67.83
2019-04-07T02:27:17.974Z,72.67
2019-04-07T02:29:54.187Z,69.57
2019-04-07T02:32:31.104Z,62.00
2019-04-07T02:35:08.755Z,69.57
2019-04-07T02:37:44.174Z,69.67
2019-04-07T02:40:34.302Z,59.30
2019-04-07T02:43:15.913Z,70.90
2019-04-07T02:45:49.313Z,71.87
2019-04-07T02:48:37.495Z,80.60
2019-04-07T02:51:11.144Z,72.23
2019-04-07T02:54:02.630Z,62.87
2019-04-07T02:56:38.164Z,77.20
2019-04-07T02:59:27.111Z,64.23
2019-04-07T03:02:08.829Z,73.67
2019-04-07T03:04:49.824Z,75.77
2019-04-07T03:07:21.722Z,74.13
2019-04-07T03:10:13.052Z,60.90
2019-04-07T03:12:48.683Z,74.47
2019-04-07T03:15:24.935Z,76.03
2019-04-07T03:18:12.822Z,76.47
2019-04-07T03:20:57.093Z,66.83
2019-04-07T03:23:38.283Z,77.57
2019-04-07T03:26:11.151Z,79.43
2019-04-07T03:28:43.953Z,62.33
2019-04-07T03:31:29.402Z,76.40
2019-04-07T03:34:04.670Z,75.07
2019-04-07T03:37:09.677Z,69.93
2019-04-07T03:39:15.032Z,78.47
2019-04-07T03:41:52.252Z,65.30
2019-04-07T03:44:25.618Z,75.57
2019-04-07T03:47:07.193Z,61.37
2019-04-07T03:49:57.435Z,72.80
2019-04-07T03:52:44.869Z,63.40
2019-04-07T03:55:32.811Z,79.27
2019-04-07T03:58:10.219Z,72.67
2019-04-07T04:01:00.609Z,65.00
2019-04-07T04:03:40.539Z,76.73
2019-04-07T04:06:22.577Z,68.97
2019-04-07T04:08:58.539Z,75.70
2019-04-07T04:11:32.459Z,77.50
2019-04-07T04:14:11.166Z,75.83
2019-04-07T04:16:44.497Z,64.73
2019-04-07T04:19:15.822Z,81.70
2019-04-07T04:21:48.198Z,77.70
2019-04-07T04:24:19.913Z,61.07
2019-04-07T04:26:50.135Z,83.77
2019-04-07T04:29:20.199Z,80.97
2019-04-07T04:31:50.121Z,77.07
2019-04-07T04:34:20.827Z,83.03
2019-04-07T04:36:50.409Z,80.20
2019-04-07T04:39:21.490Z,85.90
2019-04-07T04:41:54.374Z,68.13
2019-04-07T04:44:25.762Z,80.57
2019-04-07T04:46:56.176Z,85.73
2019-04-07T04:49:27.129Z,83.77
2019-04-07T04:51:57.370Z,73.47
2019-04-07T04:54:33.292Z,87.83
2019-04-07T04:57:06.130Z,83.80
2019-04-07T04:59:36.636Z,83.50
2019-04-07T05:02:08.902Z,80.97
2019-04-07T05:04:41.995Z,75.50
2019-04-07T05:07:12.459Z,75.83
2019-04-07T05:09:50.309Z,73.93
2019-04-07T05:12:18.772Z,58.80
2019-04-07T05:14:50.327Z,68.77
2019-04-07T05:17:22.191Z,72.30
2019-04-07T05:19:53.393Z,67.47
2019-04-07T05:22:23.314Z,55.23
2019-04-07T05:24:56.660Z,67.43
2019-04-07T05:27:27.847Z,69.93
2019-04-07T05:29:58.988Z,55.50
2019-04-07T05:32:31.365Z,65.97
2019-04-07T05:35:01.295Z,56.17
2019-04-07T05:37:32.906Z,62.63
2019-04-07T05:40:06.259Z,56.10
2019-04-07T05:42:38.943Z,64.23
2019-04-07T05:45:10.063Z,64.67
2019-04-07T05:47:43.186Z,63.17
2019-04-07T05:50:15.307Z,67.90
2019-04-07T05:52:46.578Z,56.63
2019-04-07T05:55:21.527Z,65.20
2019-04-07T05:57:50.274Z,68.17
2019-04-07T06:00:21.782Z,69.83
2019-04-07T06:02:52.822Z,73.43
2019-04-07T06:05:22.921Z,74.77
2019-04-07T06:07:55.884Z,73.20
2019-04-07T06:10:29.731Z,76.97
2019-04-07T06:13:00.533Z,63.07
2019-04-07T06:15:31.509Z,71.30
2019-04-07T06:18:02.913Z,58.43
2019-04-07T06:20:34.365Z,71.27
2019-04-07T06:23:05.337Z,70.60
2019-04-07T06:25:39.927Z,64.27
2019-04-07T06:28:07.512Z,57.57
2019-04-07T06:30:37.936Z,71.73
2019-04-07T06:33:11.197Z,57.50
2019-04-07T06:35:44.676Z,67.50
2019-04-07T06:38:13.494Z,64.43
2019-04-07T06:40:50.843Z,60.67
2019-04-07T06:43:22.893Z,52.90
2019-04-07T06:45:55.393Z,62.93
2019-04-07T06:48:25.519Z,66.53
2019-04-07T06:51:03.999Z,66.17
2019-04-07T06:53:52.416Z,47.43
2019-04-07T06:56:24.238Z,60.33
2019-04-07T06:59:15.480Z,60.07
2019-04-07T07:01:51.287Z,65.63
2019-04-07T07:04:33.037Z,48.07
2019-04-07T07:07:11.817Z,54.03
2019-04-07T07:09:51.935Z,52.40
2019-04-07T07:12:35.113Z,44.63
2019-04-07T07:15:06.351Z,58.33
2019-04-07T07:17:51.074Z,44.17
2019-04-07T07:20:40.535Z,52.47
2019-04-07T07:23:14.107Z,51.00
2019-04-07T07:25:44.482Z,51.60
2019-04-07T07:28:16.080Z,53.90
2019-04-07T07:30:50.494Z,51.47
2019-04-07T07:33:23.476Z,43.50
2019-04-07T07:35:55.006Z,51.50
2019-04-07T07:38:26.992Z,54.73
2019-04-07T07:41:01.038Z,53.23
2019-04-07T07:43:31.894Z,55.53
2019-04-07T07:46:03.160Z,51.73
2019-04-07T07:48:33.221Z,50.87
2019-04-07T07:51:12.953Z,48.57
2019-04-07T07:53:40.485Z,48.60
2019-04-07T07:56:13.085Z,51.07
2019-04-07T07:58:46.033Z,51.77
2019-04-07T08:01:17.885Z,45.93
2019-04-07T08:03:53.005Z,47.63
2019-04-07T08:06:24.014Z,46.67
2019-04-07T08:09:07.635Z,48.43
2019-04-07T08:11:30.819Z,45.73
2019-04-07T08:14:03.435Z,45.13
2019-04-07T08:16:33.565Z,48.43
2019-04-07T08:19:03.958Z,35.13
2019-04-07T08:21:33.861Z,42.70
2019-04-07T08:24:05.009Z,40.63
2019-04-07T08:26:35.133Z,40.87
2019-04-07T08:29:06.790Z,33.00
2019-04-07T08:31:39.374Z,37.40
2019-04-07T08:34:09.893Z,38.20
2019-04-07T08:36:43.510Z,39.20
2019-04-07T08:39:21.861Z,36.13
2019-04-07T08:41:45.897Z,35.50
2019-04-07T08:44:17.168Z,36.93
2019-04-07T08:46:48.524Z,38.10
2019-04-07T08:49:23.591Z,38.47
2019-04-07T08:51:52.314Z,33.87
2019-04-07T08:54:23.990Z,29.03
2019-04-07T08:56:56.804Z,31.57
2019-04-07T08:59:28.130Z,30.33
2019-04-07T09:01:59.482Z,28.37
2019-04-07T09:04:32.204Z,26.83
2019-04-07T09:07:04.189Z,27.03
2019-04-07T09:09:40.326Z,28.63
2019-04-07T09:12:08.188Z,25.40
2019-04-07T09:14:40.904Z,25.20
2019-04-07T09:17:14.923Z,25.23
2019-04-07T09:19:50.860Z,23.57
2019-04-07T09:22:36.358Z,21.93
2019-04-07T09:25:19.268Z,21.60
2019-04-07T09:27:55.035Z,20.20
2019-04-07T09:30:27.341Z,20.67
2019-04-07T09:33:09.813Z,20.03
2019-04-07T09:35:59.365Z,18.20
2019-04-07T09:38:35.475Z,14.67
2019-04-07T09:41:27.712Z,16.30
2019-04-07T09:44:02.924Z,16.20
2019-04-07T09:46:41.901Z,14.47
2019-04-07T09:49:15.313Z,13.50
2019-04-07T09:51:49.601Z,12.60
2019-04-07T09:54:27.582Z,15.93
2019-04-07T09:57:07.176Z,13.97
2019-04-07T09:59:50.858Z,14.47
2019-04-07T10:02:38.290Z,14.27
2019-04-07T10:05:15.381Z,13.77
2019-04-07T10:08:04.312Z,15.07
2019-04-07T10:10:39.958Z,13.47
2019-04-07T10:13:30.696Z,16.07
2019-04-07T10:16:02.401Z,14.77
2019-04-07T10:18:42.917Z,16.83
2019-04-07T10:21:15.512Z,15.10
2019-04-07T10:23:49.469Z,17.63
2019-04-07T10:26:20.081Z,14.97
2019-04-07T10:29:04.614Z,15.43
2019-04-07T10:31:36.158Z,16.50
2019-04-07T10:34:13.211Z,14.23
2019-04-07T10:36:45.034Z,14.27
2019-04-07T10:39:21.067Z,15.50
2019-04-07T10:41:55.313Z,16.10
2019-04-07T10:44:31.445Z,17.57
2019-04-07T10:47:21.207Z,15.83
2019-04-07T10:50:01.440Z,14.93
2019-04-07T10:52:37.626Z,14.73
2019-04-07T10:55:25.560Z,15.07
2019-04-07T10:58:10.454Z,15.10
2019-04-07T11:00:51.024Z,15.17
2019-04-07T11:03:21.935Z,13.67
2019-04-07T11:06:11.609Z,14.07
2019-04-07T11:08:59.265Z,13.60
2019-04-07T11:11:32.472Z,17.00
2019-04-07T11:14:07.873Z,13.03
2019-04-07T11:16:40.969Z,12.30
2019-04-07T11:19:15.566Z,12.30
2019-04-07T11:21:48.037Z,12.07
2019-04-07T11:24:31.296Z,13.63
2019-04-07T11:27:09.149Z,13.97
2019-04-07T11:29:42.489Z,12.50
2019-04-07T11:32:20.155Z,11.23
2019-04-07T11:35:08.201Z,12.60
2019-04-07T11:37:40.954Z,12.40
2019-04-07T11:40:21.457Z,15.53
2019-04-07T11:42:58.985Z,12.57
2019-04-07T11:45:37.784Z,12.60
2019-04-07T11:48:26.035Z,12.80
2019-04-07T11:50:58.785Z,11.83
2019-04-07T11:53:35.005Z,12.87
2019-04-07T11:56:09.507Z,14.13
2019-04-07T11:58:56.333Z,13.33
2019-04-07T12:01:34.941Z,11.97
2019-04-07T12:04:09.460Z,13.77
2019-04-07T12:06:48.264Z,12.27
2019-04-07T12:09:23.861Z,12.47
2019-04-07T12:11:59.550Z,12.77
2019-04-07T12:14:50.014Z,12.20
2019-04-07T12:17:40.247Z,12.10
2019-04-07T12:20:17.722Z,11.70
2019-04-07T12:22:53.836Z,12.70
2019-04-07T12:25:32.867Z,11.50
2019-04-07T12:28:07.890Z,12.17
2019-04-07T12:30:49.017Z,14.30
2019-04-07T12:33:22.983Z,11.27
2019-04-07T12:36:10.282Z,15.63
2019-04-07T12:38:44.657Z,12.00
2019-04-07T12:41:21.965Z,11.77
2019-04-07T12:44:01.625Z,12.63
2019-04-07T12:46:37.574Z,13.13
2019-04-07T12:49:18.831Z,12.47
2019-04-07T12:52:08.564Z,15.47
2019-04-07T12:54:52.529Z,12.83
2019-04-07T12:57:35.464Z,12.90
2019-04-07T13:00:14.639Z,15.60
2019-04-07T13:02:56.264Z,13.03
2019-04-07T13:05:29.774Z,18.47
2019-04-07T13:08:02.786Z,14.83
2019-04-07T13:10:47.268Z,14.83
2019-04-07T13:13:24.330Z,14.00
2019-04-07T13:16:05.545Z,14.97
2019-04-07T13:18:40.984Z,16.07
2019-04-07T13:21:13.188Z,12.50
2019-04-07T13:23:57.881Z,15.00
2019-04-07T13:26:38.923Z,13.40
2019-04-07T13:29:14.654Z,16.60
2019-04-07T13:31:50.371Z,14.27
2019-04-07T13:34:25.111Z,15.23
2019-04-07T13:37:01.287Z,14.70
2019-04-07T13:39:48.593Z,13.83
2019-04-07T13:42:27.866Z,16.73
2019-04-07T13:45:16.860Z,14.27
2019-04-07T13:47:49.535Z,13.43
2019-04-07T13:50:34.695Z,16.60
2019-04-07T13:53:20.714Z,15.10
2019-04-07T13:55:53.587Z,14.43
2019-04-07T13:58:31.011Z,14.43
2019-04-07T14:01:04.949Z,15.17
2019-04-07T14:03:42.042Z,13.90
2019-04-07T14:06:20.515Z,14.70
2019-04-07T14:09:09.260Z,14.73
2019-04-07T14:11:56.585Z,16.63
2019-04-07T14:14:28.149Z,13.97
2019-04-07T14:17:08.525Z,17.67
2019-04-07T14:19:57.732Z,14.60
2019-04-07T14:22:41.033Z,14.23
2019-04-07T14:25:30.945Z,14.43
2019-04-07T14:28:21.746Z,14.57
2019-04-07T14:31:10.843Z,18.80
2019-04-07T14:34:00.024Z,15.23
2019-04-07T14:36:35.061Z,19.23
2019-04-07T14:39:27.135Z,14.63
2019-04-07T14:42:06.756Z,15.37
2019-04-07T14:44:36.952Z,16.13
2019-04-07T14:47:21.779Z,17.40
2019-04-07T14:49:55.062Z,14.20
2019-04-07T14:52:26.421Z,16.80
2019-04-07T14:55:14.003Z,15.77
2019-04-07T14:57:55.341Z,17.87
2019-04-07T15:00:42.792Z,13.77
2019-04-07T15:03:12.205Z,14.23
2019-04-07T15:05:49.488Z,13.57
2019-04-07T15:08:32.851Z,15.07
2019-04-07T15:11:16.731Z,14.70
2019-04-07T15:13:47.438Z,16.43
2019-04-07T15:16:18.565Z,16.77
2019-04-07T15:18:50.127Z,16.30
2019-04-07T15:21:20.030Z,16.23
2019-04-07T15:23:50.765Z,17.13
2019-04-07T15:26:22.129Z,16.20
2019-04-07T15:28:52.422Z,14.10
2019-04-07T15:31:24.898Z,15.60
2019-04-07T15:33:55.298Z,16.10
2019-04-07T15:36:25.417Z,14.17
2019-04-07T15:38:57.206Z,13.73
2019-04-07T15:41:28.305Z,18.20
2019-04-07T15:44:00.389Z,16.60
2019-04-07T15:46:32.535Z,16.50
2019-04-07T15:49:06.828Z,15.80
2019-04-07T15:51:39.877Z,14.80
2019-04-07T15:54:10.121Z,16.07
2019-04-07T15:56:45.403Z,14.57
2019-04-07T15:59:17.956Z,15.07
2019-04-07T16:01:47.595Z,14.17
2019-04-07T16:04:18.686Z,16.40
2019-04-07T16:06:50.661Z,20.90
2019-04-07T16:09:33.275Z,16.90
2019-04-07T16:11:57.414Z,15.17
2019-04-07T16:14:27.503Z,15.43
2019-04-07T16:17:02.093Z,16.40
2019-04-07T16:19:39.756Z,15.97
2019-04-07T16:22:06.091Z,14.97
2019-04-07T16:24:37.138Z,17.00
2019-04-07T16:27:08.105Z,16.63
2019-04-07T16:29:40.911Z,18.43
2019-04-07T16:32:11.398Z,15.70
2019-04-07T16:34:43.631Z,18.40
2019-04-07T16:37:13.960Z,14.67
2019-04-07T16:39:44.596Z,16.10
2019-04-07T16:42:16.032Z,15.43
2019-04-07T16:44:47.127Z,18.37
2019-04-07T16:47:23.262Z,16.13
2019-04-07T16:49:53.133Z,15.97
2019-04-07T16:52:24.417Z,18.33
2019-04-07T16:54:56.011Z,16.77
2019-04-07T16:57:30.156Z,18.73
2019-04-07T17:00:01.566Z,15.80
2019-04-07T17:02:32.803Z,16.13
2019-04-07T17:05:03.159Z,17.17
2019-04-07T17:07:34.281Z,16.73
2019-04-07T17:10:05.749Z,16.40
2019-04-07T17:12:40.611Z,15.70
2019-04-07T17:15:13.603Z,16.30
2019-04-07T17:17:45.508Z,15.97
2019-04-07T17:20:16.173Z,17.07
2019-04-07T17:22:48.461Z,17.63
2019-04-07T17:25:19.450Z,17.57
2019-04-07T17:27:50.887Z,22.70
2019-04-07T17:30:24.230Z,16.27
2019-04-07T17:32:55.081Z,17.33
2019-04-07T17:35:26.222Z,16.90
2019-04-07T17:38:01.698Z,15.43
2019-04-07T17:40:31.945Z,18.17
2019-04-07T17:43:04.989Z,15.97
2019-04-07T17:45:54.603Z,15.93
2019-04-07T17:48:50.374Z,16.80
2019-04-07T17:54:28.996Z,16.93
2019-04-07T17:57:04.014Z,15.63
2019-04-07T17:59:37.792Z,15.50
2019-04-07T18:02:30.198Z,15.70
2019-04-07T18:05:01.645Z,14.83
2019-04-07T18:07:44.849Z,17.23
2019-04-07T18:10:28.580Z,15.83
2019-04-07T18:13:15.695Z,16.80
2019-04-07T18:15:54.374Z,17.20
2019-04-07T18:18:42.081Z,16.00
2019-04-07T18:21:18.015Z,15.83
2019-04-07T18:24:06.995Z,16.20
2019-04-07T18:26:41.547Z,15.23
2019-04-07T18:29:12.090Z,16.67
2019-04-07T18:31:47.638Z,17.53
2019-04-07T18:34:25.141Z,16.77
2019-04-07T18:37:11.748Z,17.33
2019-04-07T18:39:56.524Z,16.67
2019-04-07T18:42:42.263Z,16.17
2019-04-07T18:45:32.478Z,16.17
2019-04-07T18:48:11.338Z,18.90
2019-04-07T18:50:59.659Z,16.93
2019-04-07T18:53:35.059Z,16.33
2019-04-07T18:56:21.212Z,17.83
2019-04-07T18:58:53.050Z,19.57
2019-04-07T19:01:41.379Z,17.07
2019-04-07T19:04:12.981Z,17.47
2019-04-07T19:06:51.109Z,19.87
2019-04-07T19:09:35.648Z,19.63
2019-04-07T19:12:14.109Z,18.30
2019-04-07T19:14:57.101Z,19.17
2019-04-07T19:17:41.908Z,18.50
2019-04-07T19:20:20.557Z,18.80
2019-04-07T19:23:02.414Z,17.80
2019-04-07T19:25:35.534Z,17.07
2019-04-07T19:28:23.348Z,17.57
2019-04-07T19:31:11.079Z,18.27
2019-04-07T19:33:45.180Z,19.10
2019-04-07T19:36:21.284Z,17.03
2019-04-07T19:39:09.549Z,18.43
2019-04-07T19:42:01.407Z,18.80
2019-04-07T19:44:37.077Z,18.60
2019-04-07T19:47:20.784Z,20.97
2019-04-07T19:50:10.785Z,18.53
2019-04-07T19:52:44.487Z,18.10
2019-04-07T19:55:25.346Z,19.10
2019-04-07T19:57:57.927Z,24.53
2019-04-07T20:00:33.889Z,21.33
2019-04-07T20:03:12.860Z,19.77
2019-04-07T20:05:43.171Z,21.57
2019-04-07T20:08:22.950Z,22.53
2019-04-07T20:11:11.819Z,21.47
2019-04-07T20:13:55.778Z,28.07
2019-04-07T20:16:26.264Z,23.67
2019-04-07T20:19:08.769Z,27.70
2019-04-07T20:21:42.547Z,25.80
2019-04-07T20:24:15.276Z,24.10
2019-04-07T20:26:54.548Z,22.03
2019-04-07T20:29:35.334Z,26.07
2019-04-07T20:32:10.970Z,26.17
2019-04-07T20:34:55.048Z,26.57
2019-04-07T20:37:47.403Z,24.17
2019-04-07T20:40:19.353Z,24.13
2019-04-07T20:42:57.450Z,27.53
2019-04-07T20:45:47.486Z,22.70
2019-04-07T20:48:36.159Z,25.60
2019-04-07T20:51:10.326Z,27.67
2019-04-07T20:53:53.877Z,29.20
2019-04-07T20:56:31.451Z,25.17
2019-04-07T20:59:08.452Z,26.90
2019-04-07T21:02:03.319Z,25.07
2019-04-07T21:04:31.474Z,24.60
2019-04-07T21:07:17.070Z,25.60
2019-04-07T21:10:06.523Z,29.47
2019-04-07T21:12:49.411Z,24.73
2019-04-07T21:15:33.711Z,26.73
2019-04-07T21:18:06.493Z,31.77
2019-04-07T21:20:55.629Z,26.53
2019-04-07T21:23:43.307Z,32.73
2019-04-07T21:26:27.216Z,24.20
2019-04-07T21:28:59.488Z,28.57
2019-04-07T21:31:47.678Z,28.03
2019-04-07T21:34:26.000Z,31.37
2019-04-07T21:36:57.658Z,27.23
2019-04-07T21:39:45.036Z,24.60
2019-04-07T21:42:34.074Z,27.20
2019-04-07T21:45:27.831Z,30.70
2019-04-07T21:48:00.096Z,27.43
2019-04-07T21:50:42.078Z,30.67
2019-04-07T21:53:20.359Z,29.03
2019-04-07T21:55:51.901Z,28.20
2019-04-07T21:58:36.381Z,26.10
2019-04-07T22:01:14.612Z,29.73
2019-04-07T22:03:50.157Z,30.87
2019-04-07T22:06:29.804Z,25.87
2019-04-07T22:09:05.203Z,32.60
2019-04-07T22:11:36.758Z,26.90
2019-04-07T22:14:08.373Z,24.43
2019-04-07T22:16:39.633Z,30.27
2019-04-07T22:19:14.770Z,29.10
2019-04-07T22:21:43.260Z,31.50
2019-04-07T22:24:13.117Z,32.10
2019-04-07T22:26:47.088Z,32.10
2019-04-07T22:29:16.175Z,26.10
2019-04-07T22:31:51.486Z,29.97
2019-04-07T22:34:23.689Z,30.60
2019-04-07T22:36:53.864Z,32.80
2019-04-07T22:39:28.739Z,31.43
2019-04-07T22:42:02.158Z,26.30
2019-04-07T22:44:33.574Z,32.17
2019-04-07T22:47:03.311Z,29.40
2019-04-07T22:49:33.600Z,34.50
2019-04-07T22:52:04.367Z,27.33
2019-04-07T22:54:34.977Z,33.20
2019-04-07T22:57:10.306Z,31.47
2019-04-07T22:59:38.048Z,26.93
2019-04-07T23:02:07.864Z,32.80
2019-04-07T23:04:38.510Z,27.80
2019-04-07T23:07:09.774Z,30.90
2019-04-07T23:09:41.160Z,28.77
2019-04-07T23:12:12.638Z,30.87
2019-04-07T23:14:44.236Z,29.13
2019-04-07T23:17:15.554Z,26.80
2019-04-07T23:19:46.338Z,32.33
2019-04-07T23:22:18.793Z,26.97
2019-04-07T23:24:49.057Z,31.07
2019-04-07T23:27:20.258Z,26.17
2019-04-07T23:29:51.284Z,32.63
2019-04-07T23:32:23.913Z,26.80
2019-04-07T23:34:57.860Z,32.33
2019-04-07T23:37:29.136Z,28.47
2019-04-07T23:40:00.168Z,35.27
2019-04-07T23:42:30.938Z,34.43
2019-04-07T23:45:03.028Z,26.47
2019-04-07T23:47:35.416Z,33.90
2019-04-07T23:50:07.816Z,25.57
2019-04-07T23:52:37.570Z,31.50
2019-04-07T23:55:08.182Z,33.20
2019-04-07T23:57:38.145Z,29.20
